Time;durP1;ratioP1;P1;durP2;ratioP2;P2;SDS_P1;SDS_P2;PMS_P1;PMS_P2;Temp;Humidity;BMP_temperature;BMP_pressure;BME280_temperature;BME280_humidity;BME280_pressure;Samples;Min_cycle;Max_cycle;Signal;HPM_P1;HPM_P2
2022/08/17 00:00:59;;;;;;;17.30;11.17;;;;;;;;;;732033;192;633075;-85
2022/08/17 00:03:27;;;;;;;15.40;12.27;;;;;;;;;;731039;190;662718;-84
2022/08/17 00:05:53;;;;;;;15.57;12.83;;;;;;;;;;735442;190;639263;-83
2022/08/17 00:08:20;;;;;;;14.30;11.33;;;;;;;;;;733313;191;619253;-83
2022/08/17 00:10:46;;;;;;;15.20;11.90;;;;;;;;;;737480;191;650135;-85
2022/08/17 00:13:11;;;;;;;18.80;11.83;;;;;;;;;;742137;191;622098;-85
2022/08/17 00:15:37;;;;;;;12.80;11.00;;;;;;;;;;730940;190;657197;-85
2022/08/17 00:18:03;;;;;;;18.60;11.90;;;;;;;;;;728179;190;639804;-85
2022/08/17 00:20:29;;;;;;;12.47;10.33;;;;;;;;;;736030;191;633889;-84
2022/08/17 00:23:01;;;;;;;17.47;12.13;;;;;;;;;;737292;190;628407;-83
2022/08/17 00:25:27;;;;;;;13.70;11.30;;;;;;;;;;731961;191;661388;-85
2022/08/17 00:27:52;;;;;;;16.77;12.10;;;;;;;;;;733338;191;655497;-84
2022/08/17 00:30:18;;;;;;;16.90;12.23;;;;;;;;;;739788;191;665825;-85
2022/08/17 00:32:44;;;;;;;18.70;12.30;;;;;;;;;;737344;189;638737;-84
2022/08/17 00:35:10;;;;;;;15.23;12.20;;;;;;;;;;733203;190;632547;-85
2022/08/17 00:37:36;;;;;;;19.47;13.70;;;;;;;;;;730193;190;646290;-84
2022/08/17 00:40:02;;;;;;;14.43;11.20;;;;;;;;;;737567;190;623906;-84
2022/08/17 00:42:28;;;;;;;13.77;11.00;;;;;;;;;;729579;190;644739;-85
2022/08/17 00:44:53;;;;;;;20.60;12.60;;;;;;;;;;733203;191;633109;-85
2022/08/17 00:47:19;;;;;;;18.60;11.23;;;;;;;;;;738363;189;652794;-85
2022/08/17 00:49:45;;;;;;;19.53;12.80;;;;;;;;;;729510;192;687991;-84
2022/08/17 00:52:14;;;;;;;18.40;12.27;;;;;;;;;;730798;191;653945;-84
2022/08/17 00:54:37;;;;;;;15.03;11.97;;;;;;;;;;731993;192;658278;-85
2022/08/17 00:57:03;;;;;;;15.80;12.80;;;;;;;;;;726948;190;621312;-84
2022/08/17 00:59:30;;;;;;;14.23;11.03;;;;;;;;;;734691;190;662325;-85
2022/08/17 01:01:56;;;;;;;17.30;12.70;;;;;;;;;;727535;190;629885;-85
2022/08/17 01:04:22;;;;;;;17.23;11.80;;;;;;;;;;735157;190;660935;-83
2022/08/17 01:06:48;;;;;;;17.60;13.70;;;;;;;;;;738169;187;630025;-85
2022/08/17 01:09:14;;;;;;;16.43;12.23;;;;;;;;;;733167;190;628079;-84
2022/08/17 01:11:39;;;;;;;17.30;12.87;;;;;;;;;;735639;191;629958;-84
2022/08/17 01:14:06;;;;;;;20.87;12.47;;;;;;;;;;734058;190;628662;-84
2022/08/17 01:16:31;;;;;;;17.30;13.40;;;;;;;;;;732712;191;620104;-83
2022/08/17 01:18:58;;;;;;;15.60;12.90;;;;;;;;;;742265;190;628177;-86
2022/08/17 01:21:24;;;;;;;17.90;13.00;;;;;;;;;;730823;190;636463;-85
2022/08/17 01:23:50;;;;;;;18.43;14.43;;;;;;;;;;731291;191;639898;-85
2022/08/17 01:26:16;;;;;;;16.30;13.10;;;;;;;;;;733979;188;667046;-84
2022/08/17 01:28:42;;;;;;;17.00;12.37;;;;;;;;;;737646;190;661864;-84
2022/08/17 01:31:08;;;;;;;16.03;11.60;;;;;;;;;;739562;190;643744;-85
2022/08/17 01:33:34;;;;;;;19.27;13.17;;;;;;;;;;729900;190;660204;-83
2022/08/17 01:36:00;;;;;;;19.47;13.10;;;;;;;;;;739803;190;627729;-85
2022/08/17 01:38:30;;;;;;;15.43;12.67;;;;;;;;;;728272;190;639336;-84
2022/08/17 01:40:51;;;;;;;14.13;12.23;;;;;;;;;;731256;190;672872;-84
2022/08/17 01:43:20;;;;;;;19.90;12.80;;;;;;;;;;741442;190;629091;-84
2022/08/17 01:45:44;;;;;;;14.70;12.13;;;;;;;;;;735492;190;638053;-84
2022/08/17 01:48:10;;;;;;;16.10;12.40;;;;;;;;;;738143;191;632238;-83
2022/08/17 01:50:36;;;;;;;18.77;13.90;;;;;;;;;;737377;190;634084;-82
2022/08/17 01:53:02;;;;;;;17.90;12.47;;;;;;;;;;725780;190;632832;-83
2022/08/17 01:55:29;;;;;;;17.30;13.90;;;;;;;;;;731228;191;647202;-83
2022/08/17 01:57:55;;;;;;;15.60;11.97;;;;;;;;;;731283;190;625116;-84
2022/08/17 02:00:20;;;;;;;16.00;13.27;;;;;;;;;;739093;190;657961;-82
2022/08/17 02:02:46;;;;;;;15.80;12.80;;;;;;;;;;735968;191;659211;-84
2022/08/17 02:05:12;;;;;;;16.97;11.80;;;;;;;;;;733543;191;616408;-84
2022/08/17 02:07:38;;;;;;;19.67;12.30;;;;;;;;;;735083;189;652864;-85
2022/08/17 02:10:04;;;;;;;19.40;13.80;;;;;;;;;;732684;191;642876;-84
2022/08/17 02:12:30;;;;;;;17.83;12.50;;;;;;;;;;737889;190;628314;-85
2022/08/17 02:14:56;;;;;;;22.30;13.00;;;;;;;;;;738915;190;687610;-85
2022/08/17 02:17:22;;;;;;;20.00;13.20;;;;;;;;;;734325;192;638138;-82
2022/08/17 02:19:47;;;;;;;17.00;12.73;;;;;;;;;;735719;190;630159;-85
2022/08/17 02:22:13;;;;;;;15.87;12.53;;;;;;;;;;736234;191;639405;-84
2022/08/17 02:24:39;;;;;;;15.97;11.57;;;;;;;;;;741937;190;663744;-85
2022/08/17 02:27:05;;;;;;;16.07;14.07;;;;;;;;;;734391;190;654973;-85
2022/08/17 02:29:31;;;;;;;18.53;13.50;;;;;;;;;;737261;189;628399;-84
2022/08/17 02:31:57;;;;;;;14.97;13.10;;;;;;;;;;734474;190;627910;-86
2022/08/17 02:34:23;;;;;;;17.53;12.80;;;;;;;;;;737026;191;728886;-84
2022/08/17 02:36:48;;;;;;;17.90;12.63;;;;;;;;;;736928;191;628838;-85
2022/08/17 02:39:14;;;;;;;17.43;13.10;;;;;;;;;;738182;190;613749;-85
2022/08/17 02:41:40;;;;;;;19.70;12.97;;;;;;;;;;736633;188;635329;-85
2022/08/17 02:44:06;;;;;;;16.40;13.13;;;;;;;;;;739749;190;637611;-83
2022/08/17 02:46:32;;;;;;;17.67;11.67;;;;;;;;;;736877;190;639450;-83
2022/08/17 02:48:58;;;;;;;16.07;12.83;;;;;;;;;;735660;190;622217;-85
2022/08/17 02:51:23;;;;;;;17.67;11.77;;;;;;;;;;741455;189;619376;-84
2022/08/17 02:53:49;;;;;;;17.27;12.90;;;;;;;;;;733152;191;627733;-85
2022/08/17 02:56:15;;;;;;;17.63;14.60;;;;;;;;;;741888;189;625767;-85
2022/08/17 02:58:41;;;;;;;16.60;12.83;;;;;;;;;;741939;190;624522;-84
2022/08/17 03:01:07;;;;;;;18.43;13.67;;;;;;;;;;735496;190;681569;-84
2022/08/17 03:03:33;;;;;;;20.80;13.03;;;;;;;;;;732369;190;625222;-85
2022/08/17 03:05:58;;;;;;;24.03;13.20;;;;;;;;;;736173;188;635347;-85
2022/08/17 03:08:24;;;;;;;15.53;12.87;;;;;;;;;;731329;191;617975;-84
2022/08/17 03:10:50;;;;;;;21.50;14.27;;;;;;;;;;732170;191;629653;-84
2022/08/17 03:13:16;;;;;;;15.93;12.33;;;;;;;;;;733950;191;632701;-84
2022/08/17 03:15:43;;;;;;;16.93;14.00;;;;;;;;;;734862;190;630436;-84
2022/08/17 03:18:08;;;;;;;20.13;12.60;;;;;;;;;;730334;191;661477;-85
2022/08/17 03:20:35;;;;;;;17.60;13.20;;;;;;;;;;735462;190;633553;-84
2022/08/17 03:23:00;;;;;;;15.10;12.23;;;;;;;;;;731532;190;654495;-85
2022/08/17 03:25:25;;;;;;;18.63;14.17;;;;;;;;;;735958;190;637179;-85
2022/08/17 03:27:51;;;;;;;15.97;12.90;;;;;;;;;;737864;190;623334;-84
2022/08/17 03:30:17;;;;;;;17.17;13.80;;;;;;;;;;735254;190;649113;-84
2022/08/17 03:32:43;;;;;;;17.20;14.50;;;;;;;;;;738690;190;621837;-85
2022/08/17 03:35:09;;;;;;;17.67;14.47;;;;;;;;;;733918;190;658968;-85
2022/08/17 03:37:35;;;;;;;18.27;12.43;;;;;;;;;;737158;186;622132;-84
2022/08/17 03:40:01;;;;;;;15.77;12.93;;;;;;;;;;734402;190;625009;-83
2022/08/17 03:42:26;;;;;;;20.30;13.77;;;;;;;;;;737339;188;673485;-84
2022/08/17 03:44:52;;;;;;;17.07;12.73;;;;;;;;;;740477;190;627635;-84
2022/08/17 03:57:24;;;;;;;16.77;13.70;;;;;;;;;;732606;189;621339;-85
2022/08/17 03:59:50;;;;;;;21.10;15.17;;;;;;;;;;731652;190;630339;-85
2022/08/17 04:02:18;;;;;;;18.23;14.23;;;;;;;;;;737882;188;660289;-84
2022/08/17 04:04:44;;;;;;;18.37;14.23;;;;;;;;;;736807;190;620818;-84
2022/08/17 04:07:10;;;;;;;22.43;14.90;;;;;;;;;;733105;188;629908;-84
2022/08/17 04:09:36;;;;;;;23.77;15.47;;;;;;;;;;730906;190;634456;-85
2022/08/17 04:12:02;;;;;;;17.43;13.13;;;;;;;;;;738127;191;649187;-84
2022/08/17 04:14:32;;;;;;;18.00;13.80;;;;;;;;;;736212;190;639860;-84
2022/08/17 04:16:53;;;;;;;19.65;15.35;;;;;;;;;;728583;187;1696940;-85
2022/08/17 04:19:19;;;;;;;20.67;15.20;;;;;;;;;;734071;190;636770;-85
2022/08/17 04:21:45;;;;;;;18.37;14.90;;;;;;;;;;738140;189;639434;-83
2022/08/17 04:24:11;;;;;;;18.43;14.80;;;;;;;;;;734524;190;628819;-84
2022/08/17 04:26:37;;;;;;;26.10;17.03;;;;;;;;;;736735;190;623125;-85
2022/08/17 04:29:03;;;;;;;26.17;16.40;;;;;;;;;;736556;190;614666;-81
2022/08/17 04:31:29;;;;;;;24.87;18.30;;;;;;;;;;731140;190;741047;-85
2022/08/17 04:33:55;;;;;;;25.83;17.83;;;;;;;;;;733844;191;711209;-85
2022/08/17 04:36:20;;;;;;;24.77;16.97;;;;;;;;;;738951;189;623130;-85
2022/08/17 04:38:46;;;;;;;21.40;17.27;;;;;;;;;;732654;190;626111;-83
2022/08/17 04:43:43;;;;;;;26.50;20.03;;;;;;;;;;732891;190;650235;-85
2022/08/17 04:46:09;;;;;;;25.40;17.80;;;;;;;;;;728888;190;1890242;-86
2022/08/17 04:48:36;;;;;;;29.27;21.43;;;;;;;;;;729094;190;1647835;-83
2022/08/17 04:51:02;;;;;;;34.57;21.00;;;;;;;;;;738952;186;636718;-83
2022/08/17 04:53:28;;;;;;;35.40;24.27;;;;;;;;;;741987;190;628786;-84
2022/08/17 04:55:56;;;;;;;41.27;26.07;;;;;;;;;;731354;190;674127;-83
2022/08/17 04:58:20;;;;;;;45.57;27.80;;;;;;;;;;735560;191;674040;-84
2022/08/17 05:00:46;;;;;;;44.53;28.90;;;;;;;;;;736076;190;623882;-84
2022/08/17 05:03:12;;;;;;;45.90;30.90;;;;;;;;;;732356;192;622780;-84
2022/08/17 05:05:38;;;;;;;37.57;26.07;;;;;;;;;;724174;190;1624578;-84
2022/08/17 05:08:03;;;;;;;36.67;27.10;;;;;;;;;;735773;190;624029;-83
2022/08/17 05:10:29;;;;;;;36.00;27.00;;;;;;;;;;736349;190;635628;-84
2022/08/17 05:12:56;;;;;;;39.27;25.20;;;;;;;;;;733908;190;661490;-84
2022/08/17 05:15:22;;;;;;;32.27;24.73;;;;;;;;;;731139;190;637706;-83
2022/08/17 05:17:48;;;;;;;33.70;25.90;;;;;;;;;;739141;190;636430;-85
2022/08/17 05:20:14;;;;;;;35.97;25.43;;;;;;;;;;736398;190;615867;-82
2022/08/17 05:22:48;;;;;;;32.60;23.33;;;;;;;;;;731579;190;680846;-84
2022/08/17 05:25:13;;;;;;;37.93;26.20;;;;;;;;;;731524;190;650030;-83
2022/08/17 05:27:38;;;;;;;33.13;23.87;;;;;;;;;;737609;188;839361;-85
2022/08/17 05:30:04;;;;;;;34.40;24.57;;;;;;;;;;738940;190;626460;-84
2022/08/17 05:32:30;;;;;;;30.23;21.10;;;;;;;;;;736194;190;683429;-85
2022/08/17 05:34:58;;;;;;;29.83;23.60;;;;;;;;;;738329;190;666612;-85
2022/08/17 05:37:21;;;;;;;28.80;22.53;;;;;;;;;;735883;190;628138;-85
2022/08/17 05:39:47;;;;;;;26.90;22.07;;;;;;;;;;736450;190;857478;-83
2022/08/17 05:42:13;;;;;;;25.53;20.50;;;;;;;;;;734897;190;635499;-84
2022/08/17 05:44:39;;;;;;;25.87;20.33;;;;;;;;;;730690;190;659253;-86
2022/08/17 05:47:05;;;;;;;26.40;20.10;;;;;;;;;;730892;190;633328;-85
2022/08/17 05:49:32;;;;;;;27.40;19.60;;;;;;;;;;734570;190;675683;-85
2022/08/17 05:51:57;;;;;;;24.50;19.90;;;;;;;;;;737853;189;619796;-85
2022/08/17 05:54:29;;;;;;;25.53;19.67;;;;;;;;;;732664;190;624395;-84
2022/08/17 05:56:55;;;;;;;29.33;21.47;;;;;;;;;;733553;190;619039;-85
2022/08/17 05:59:23;;;;;;;24.00;20.00;;;;;;;;;;732990;190;653056;-83
2022/08/17 06:01:52;;;;;;;24.57;19.03;;;;;;;;;;731840;187;632744;-85
2022/08/17 06:04:33;;;;;;;26.80;19.57;;;;;;;;;;732585;190;659831;-86
2022/08/17 06:07:03;;;;;;;25.73;18.90;;;;;;;;;;732343;191;641384;-85
2022/08/17 06:09:35;;;;;;;23.77;19.60;;;;;;;;;;730598;190;636975;-85
2022/08/17 06:12:04;;;;;;;24.20;18.60;;;;;;;;;;735796;188;632824;-85
2022/08/17 06:14:29;;;;;;;24.93;18.40;;;;;;;;;;738182;190;631133;-85
2022/08/17 06:16:55;;;;;;;22.67;18.10;;;;;;;;;;736881;190;631722;-85
2022/08/17 06:19:22;;;;;;;21.07;17.30;;;;;;;;;;735299;190;627722;-83
2022/08/17 06:21:48;;;;;;;24.20;16.90;;;;;;;;;;740791;190;631787;-84
2022/08/17 06:24:14;;;;;;;21.20;16.63;;;;;;;;;;738119;190;667774;-84
2022/08/17 06:26:40;;;;;;;21.37;17.17;;;;;;;;;;734829;189;637079;-85
2022/08/17 06:29:11;;;;;;;20.83;16.60;;;;;;;;;;735570;191;663979;-83
2022/08/17 06:31:37;;;;;;;16.77;14.83;;;;;;;;;;734668;190;648118;-84
2022/08/17 06:34:03;;;;;;;17.20;13.67;;;;;;;;;;736691;190;643340;-83
2022/08/17 06:36:29;;;;;;;16.13;13.97;;;;;;;;;;733718;190;667884;-86
2022/08/17 06:38:56;;;;;;;17.70;12.93;;;;;;;;;;741227;188;621046;-83
2022/08/17 06:41:23;;;;;;;22.10;15.77;;;;;;;;;;733792;190;648775;-85
2022/08/17 06:44:05;;;;;;;15.97;14.27;;;;;;;;;;732600;190;633785;-84
2022/08/17 06:46:35;;;;;;;15.97;14.30;;;;;;;;;;737605;189;631272;-85
2022/08/17 06:49:07;;;;;;;15.50;13.50;;;;;;;;;;733740;190;692725;-85
2022/08/17 06:51:34;;;;;;;17.80;12.43;;;;;;;;;;738123;190;636563;-84
2022/08/17 06:54:04;;;;;;;15.63;14.03;;;;;;;;;;735702;190;617100;-83
2022/08/17 06:56:31;;;;;;;21.07;14.20;;;;;;;;;;731655;190;629583;-81
2022/08/17 06:58:54;;;;;;;15.53;13.07;;;;;;;;;;736023;190;644422;-82
2022/08/17 07:01:19;;;;;;;16.70;12.10;;;;;;;;;;738434;190;646789;-83
2022/08/17 07:03:45;;;;;;;18.43;12.90;;;;;;;;;;735741;191;635324;-84
2022/08/17 07:06:14;;;;;;;12.93;11.60;;;;;;;;;;742732;182;637583;-63
2022/08/17 07:08:44;;;;;;;16.50;12.60;;;;;;;;;;767002;183;628917;-64
2022/08/17 07:11:11;;;;;;;23.10;13.73;;;;;;;;;;755604;183;641032;-64
2022/08/17 07:13:42;;;;;;;16.67;11.20;;;;;;;;;;747948;186;622544;-60
2022/08/17 07:16:11;;;;;;;20.83;10.77;;;;;;;;;;751178;186;635292;-64
2022/08/17 07:18:36;;;;;;;14.07;11.40;;;;;;;;;;753198;186;636364;-64
2022/08/17 07:21:02;;;;;;;12.13;10.93;;;;;;;;;;744970;189;627639;-64
2022/08/17 07:23:28;;;;;;;13.80;10.30;;;;;;;;;;744108;188;623873;-65
2022/08/17 07:25:54;;;;;;;13.13;10.67;;;;;;;;;;748949;186;622473;-61
2022/08/17 07:28:21;;;;;;;13.90;10.97;;;;;;;;;;751522;186;623632;-64
2022/08/17 07:30:48;;;;;;;12.87;10.73;;;;;;;;;;751212;186;633089;-65
2022/08/17 07:33:13;;;;;;;19.13;10.93;;;;;;;;;;755096;186;623539;-60
2022/08/17 07:35:39;;;;;;;16.63;9.80;;;;;;;;;;754881;186;613812;-65
2022/08/17 07:38:06;;;;;;;11.47;9.90;;;;;;;;;;750652;186;617146;-60
2022/08/17 07:40:34;;;;;;;11.10;9.90;;;;;;;;;;740298;187;636893;-65
2022/08/17 07:43:03;;;;;;;10.80;9.10;;;;;;;;;;753310;186;626599;-61
2022/08/17 07:48:18;;;;;;;11.30;8.73;;;;;;;;;;746517;186;619010;-60
2022/08/17 07:50:43;;;;;;;9.43;8.20;;;;;;;;;;745802;186;623117;-60
2022/08/17 07:53:19;;;;;;;10.10;8.70;;;;;;;;;;749039;186;631472;-59
2022/08/17 07:55:45;;;;;;;8.80;7.50;;;;;;;;;;752503;186;624602;-60
2022/08/17 07:58:14;;;;;;;10.50;7.70;;;;;;;;;;749783;187;615351;-59
2022/08/17 08:00:40;;;;;;;9.20;7.70;;;;;;;;;;751796;186;626635;-60
2022/08/17 08:03:21;;;;;;;8.30;7.07;;;;;;;;;;751395;186;633396;-64
2022/08/17 08:05:47;;;;;;;11.80;7.90;;;;;;;;;;752090;186;621567;-64
2022/08/17 08:08:16;;;;;;;14.50;8.87;;;;;;;;;;749539;186;619197;-64
2022/08/17 08:10:42;;;;;;;11.50;8.10;;;;;;;;;;757360;186;624935;-64
2022/08/17 08:13:10;;;;;;;10.30;8.00;;;;;;;;;;752182;186;627035;-59
2022/08/17 08:15:38;;;;;;;10.63;9.43;;;;;;;;;;742891;186;621405;-64
2022/08/17 08:18:03;;;;;;;9.27;8.23;;;;;;;;;;753469;187;622786;-64
2022/08/17 08:20:34;;;;;;;10.00;7.70;;;;;;;;;;746308;187;625811;-60
2022/08/17 08:23:02;;;;;;;10.03;8.77;;;;;;;;;;744188;187;618840;-64
2022/08/17 08:25:29;;;;;;;16.93;8.07;;;;;;;;;;745569;187;619140;-65
2022/08/17 08:27:55;;;;;;;10.80;8.83;;;;;;;;;;758485;186;624879;-64
2022/08/17 08:30:21;;;;;;;10.50;8.30;;;;;;;;;;753770;186;630737;-65
2022/08/17 08:32:53;;;;;;;12.13;8.40;;;;;;;;;;747168;186;625878;-64
2022/08/17 08:35:21;;;;;;;8.70;7.67;;;;;;;;;;754307;186;629771;-60
2022/08/17 08:37:48;;;;;;;12.87;8.40;;;;;;;;;;757684;186;627045;-60
2022/08/17 08:40:18;;;;;;;12.50;8.40;;;;;;;;;;751532;183;633882;-60
2022/08/17 08:42:49;;;;;;;12.47;9.33;;;;;;;;;;750443;186;638213;-64
2022/08/17 08:45:14;;;;;;;8.80;7.90;;;;;;;;;;751439;186;623320;-64
2022/08/17 08:47:47;;;;;;;9.37;8.10;;;;;;;;;;755638;186;634356;-59
2022/08/17 08:50:15;;;;;;;11.60;7.70;;;;;;;;;;746213;183;632301;-64
2022/08/17 08:52:41;;;;;;;9.77;7.07;;;;;;;;;;753251;186;629107;-62
2022/08/17 08:55:08;;;;;;;11.30;8.27;;;;;;;;;;749095;186;634838;-60
2022/08/17 08:57:36;;;;;;;11.63;8.60;;;;;;;;;;750541;186;619660;-64
2022/08/17 09:00:14;;;;;;;17.97;9.17;;;;;;;;;;748486;186;622412;-64
2022/08/17 09:02:46;;;;;;;9.00;8.10;;;;;;;;;;749673;186;625133;-63
2022/08/17 09:05:27;;;;;;;10.23;8.10;;;;;;;;;;747447;186;622258;-61
2022/08/17 09:07:58;;;;;;;17.03;8.00;;;;;;;;;;738947;187;622256;-60
2022/08/17 09:10:25;;;;;;;12.63;8.43;;;;;;;;;;747587;186;619193;-61
2022/08/17 09:12:53;;;;;;;11.60;9.30;;;;;;;;;;745514;188;627091;-65
2022/08/17 09:15:19;;;;;;;11.20;8.03;;;;;;;;;;748941;186;619115;-63
2022/08/17 09:17:45;;;;;;;10.00;8.17;;;;;;;;;;749691;186;627082;-60
2022/08/17 09:20:16;;;;;;;9.87;7.90;;;;;;;;;;752337;186;631144;-64
2022/08/17 09:22:41;;;;;;;9.60;8.37;;;;;;;;;;745956;186;626243;-65
2022/08/17 09:25:08;;;;;;;8.70;7.80;;;;;;;;;;753666;186;629323;-59
2022/08/17 09:27:40;;;;;;;9.63;8.43;;;;;;;;;;750374;186;637694;-64
2022/08/17 09:30:07;;;;;;;11.83;9.13;;;;;;;;;;756947;186;613328;-63
2022/08/17 09:32:33;;;;;;;12.07;8.80;;;;;;;;;;744879;186;617702;-63
2022/08/17 09:35:00;;;;;;;9.73;8.40;;;;;;;;;;748024;186;624835;-60
2022/08/17 09:37:27;;;;;;;18.83;9.00;;;;;;;;;;746242;189;618218;-62
2022/08/17 09:39:57;;;;;;;10.17;7.80;;;;;;;;;;747450;189;642683;-59
2022/08/17 09:42:23;;;;;;;10.50;9.27;;;;;;;;;;748836;186;627484;-60
2022/08/17 09:45:06;;;;;;;9.43;8.23;;;;;;;;;;749710;186;623330;-62
2022/08/17 09:47:44;;;;;;;11.40;8.13;;;;;;;;;;750804;186;638319;-62
2022/08/17 09:50:13;;;;;;;14.23;8.17;;;;;;;;;;753024;186;614607;-59
2022/08/17 09:52:39;;;;;;;10.37;9.17;;;;;;;;;;746030;186;613290;-64
2022/08/17 09:55:04;;;;;;;9.97;7.90;;;;;;;;;;741984;188;627256;-59
2022/08/17 09:57:30;;;;;;;12.67;8.90;;;;;;;;;;749817;186;631279;-60
2022/08/17 10:00:07;;;;;;;8.87;7.43;;;;;;;;;;755565;186;619014;-63
2022/08/17 10:02:42;;;;;;;8.80;7.90;;;;;;;;;;748356;189;626408;-60
2022/08/17 10:05:08;;;;;;;8.77;7.87;;;;;;;;;;744196;189;631819;-63
2022/08/17 10:07:35;;;;;;;10.67;8.00;;;;;;;;;;750118;186;620243;-62
2022/08/17 10:10:02;;;;;;;9.47;8.40;;;;;;;;;;751262;183;630197;-59
2022/08/17 10:12:28;;;;;;;14.50;7.73;;;;;;;;;;752502;186;625124;-58
2022/08/17 10:14:57;;;;;;;17.90;8.60;;;;;;;;;;747984;183;644388;-59
2022/08/17 10:17:38;;;;;;;10.63;7.53;;;;;;;;;;748198;186;617292;-62
2022/08/17 10:20:09;;;;;;;10.90;8.57;;;;;;;;;;744146;187;633425;-61
2022/08/17 10:27:47;;;;;;;9.00;7.90;;;;;;;;;;746992;187;619037;-58
2022/08/17 10:30:12;;;;;;;8.43;7.63;;;;;;;;;;748105;186;619326;-61
2022/08/17 10:32:38;;;;;;;9.73;8.03;;;;;;;;;;744890;187;638345;-63
2022/08/17 10:35:18;;;;;;;10.10;8.37;;;;;;;;;;754612;187;630637;-58
2022/08/17 10:37:45;;;;;;;9.43;7.60;;;;;;;;;;743436;189;634780;-61
2022/08/17 10:40:31;;;;;;;10.63;8.07;;;;;;;;;;753718;186;628422;-59
2022/08/17 10:42:59;;;;;;;9.43;7.77;;;;;;;;;;749968;186;619952;-62
2022/08/17 10:45:25;;;;;;;9.50;8.53;;;;;;;;;;749849;186;625801;-63
2022/08/17 10:47:58;;;;;;;9.00;7.40;;;;;;;;;;751481;186;639589;-62
2022/08/17 10:50:27;;;;;;;12.17;7.30;;;;;;;;;;757371;186;617481;-63
2022/08/17 10:52:53;;;;;;;8.30;7.40;;;;;;;;;;747252;186;617807;-59
2022/08/17 10:55:19;;;;;;;8.77;7.20;;;;;;;;;;746655;186;629953;-62
2022/08/17 10:57:45;;;;;;;14.30;8.33;;;;;;;;;;745749;186;622318;-59
2022/08/17 11:00:28;;;;;;;8.70;7.50;;;;;;;;;;755089;186;620699;-59
2022/08/17 11:02:52;;;;;;;10.10;7.60;;;;;;;;;;744990;187;632942;-59
2022/08/17 11:05:35;;;;;;;9.33;7.50;;;;;;;;;;750420;186;628927;-61
2022/08/17 11:08:20;;;;;;;8.97;7.67;;;;;;;;;;752142;186;617986;-60
2022/08/17 11:11:02;;;;;;;10.77;6.90;;;;;;;;;;751806;185;636858;-62
2022/08/17 11:13:36;;;;;;;12.40;7.97;;;;;;;;;;751293;186;630634;-59
2022/08/17 11:16:02;;;;;;;8.80;7.10;;;;;;;;;;749772;186;635209;-58
2022/08/17 11:18:31;;;;;;;10.50;7.90;;;;;;;;;;751351;186;628063;-62
2022/08/17 11:21:06;;;;;;;8.57;7.60;;;;;;;;;;755419;186;627896;-58
2022/08/17 11:23:38;;;;;;;9.97;8.93;;;;;;;;;;750566;186;637990;-60
2022/08/17 11:26:07;;;;;;;20.90;8.00;;;;;;;;;;751518;186;626949;-62
2022/08/17 11:28:33;;;;;;;8.87;7.97;;;;;;;;;;750064;185;615967;-62
2022/08/17 11:30:57;;;;;;;8.60;7.70;;;;;;;;;;746055;187;622089;-59
2022/08/17 11:33:43;;;;;;;9.67;7.47;;;;;;;;;;749519;186;620871;-60
2022/08/17 11:36:21;;;;;;;8.73;7.10;;;;;;;;;;743327;189;614557;-58
2022/08/17 11:38:48;;;;;;;42.43;11.87;;;;;;;;;;749789;186;633902;-58
2022/08/17 11:41:13;;;;;;;10.03;9.03;;;;;;;;;;753705;186;628818;-58
2022/08/17 11:43:43;;;;;;;8.60;7.37;;;;;;;;;;749289;186;616166;-58
2022/08/17 11:46:21;;;;;;;10.80;7.70;;;;;;;;;;752966;184;633019;-59
2022/08/17 11:54:05;;;;;;;10.50;7.23;;;;;;;;;;750461;186;792908;-65
2022/08/17 11:56:33;;;;;;;17.20;8.33;;;;;;;;;;714915;193;621751;-59
2022/08/17 11:58:59;;;;;;;8.80;7.10;;;;;;;;;;749606;186;627292;-60
2022/08/17 12:01:40;;;;;;;10.47;8.80;;;;;;;;;;754902;185;623962;-63
2022/08/17 12:04:11;;;;;;;10.60;7.73;;;;;;;;;;757498;185;619815;-59
2022/08/17 12:06:39;;;;;;;7.97;7.17;;;;;;;;;;751658;186;626496;-64
2022/08/17 12:09:10;;;;;;;8.47;7.03;;;;;;;;;;751994;186;633706;-59
2022/08/17 12:11:51;;;;;;;9.43;7.50;;;;;;;;;;748989;184;616495;-64
2022/08/17 12:14:21;;;;;;;9.63;7.83;;;;;;;;;;738771;186;618193;-64
2022/08/17 12:16:44;;;;;;;8.10;6.27;;;;;;;;;;745099;185;632054;-60
2022/08/17 12:19:19;;;;;;;9.57;6.73;;;;;;;;;;748556;186;624879;-59
2022/08/17 12:21:47;;;;;;;11.70;7.40;;;;;;;;;;750598;186;628847;-60
2022/08/17 12:24:12;;;;;;;10.73;7.40;;;;;;;;;;747172;186;636068;-63
2022/08/17 12:26:39;;;;;;;18.43;7.60;;;;;;;;;;750393;186;637871;-59
2022/08/17 12:29:04;;;;;;;7.87;6.70;;;;;;;;;;745782;186;624655;-62
2022/08/17 12:31:30;;;;;;;7.90;7.10;;;;;;;;;;749172;186;628840;-60
2022/08/17 12:33:56;;;;;;;7.97;7.17;;;;;;;;;;753354;186;638866;-59
2022/08/17 12:36:23;;;;;;;8.33;7.50;;;;;;;;;;752241;186;619072;-64
2022/08/17 12:38:48;;;;;;;9.87;6.40;;;;;;;;;;751605;186;619099;-62
2022/08/17 12:43:45;;;;;;;9.53;8.50;;;;;;;;;;745430;190;635107;-59
2022/08/17 12:46:11;;;;;;;8.40;7.20;;;;;;;;;;748234;187;626101;-58
2022/08/17 12:48:37;;;;;;;8.33;6.70;;;;;;;;;;750414;186;622782;-59
2022/08/17 12:51:03;;;;;;;8.07;7.27;;;;;;;;;;748763;186;646137;-59
2022/08/17 12:53:28;;;;;;;9.17;7.20;;;;;;;;;;746234;186;632130;-64
2022/08/17 12:55:54;;;;;;;8.23;7.43;;;;;;;;;;748629;186;628005;-64
2022/08/17 12:58:20;;;;;;;7.50;6.80;;;;;;;;;;754976;186;613909;-59
2022/08/17 13:00:47;;;;;;;9.33;7.50;;;;;;;;;;748874;186;628753;-64
2022/08/17 13:03:12;;;;;;;8.10;6.40;;;;;;;;;;752062;186;616622;-60
2022/08/17 13:05:38;;;;;;;8.40;6.60;;;;;;;;;;750603;187;632930;-59
2022/08/17 13:08:11;;;;;;;7.20;6.23;;;;;;;;;;740636;187;623405;-63
2022/08/17 13:10:36;;;;;;;10.47;7.07;;;;;;;;;;747129;186;615427;-64
2022/08/17 13:13:04;;;;;;;9.93;7.47;;;;;;;;;;753205;185;633638;-60
2022/08/17 13:15:28;;;;;;;8.30;6.60;;;;;;;;;;750362;186;623371;-64
2022/08/17 13:17:55;;;;;;;8.67;6.87;;;;;;;;;;747851;186;631118;-58
2022/08/17 13:20:20;;;;;;;6.67;5.90;;;;;;;;;;745888;186;626953;-64
2022/08/17 13:22:46;;;;;;;12.43;7.30;;;;;;;;;;753137;186;615673;-64
2022/08/17 13:25:13;;;;;;;7.57;6.80;;;;;;;;;;743882;189;616986;-60
2022/08/17 13:27:37;;;;;;;8.60;6.30;;;;;;;;;;741742;189;635766;-65
2022/08/17 13:30:04;;;;;;;7.23;6.50;;;;;;;;;;751000;186;630123;-60
2022/08/17 13:32:32;;;;;;;8.60;6.90;;;;;;;;;;756419;186;623413;-61
2022/08/17 13:35:01;;;;;;;7.70;6.90;;;;;;;;;;752709;186;615954;-65
2022/08/17 13:37:24;;;;;;;7.37;6.57;;;;;;;;;;736075;186;626374;-59
2022/08/17 13:39:50;;;;;;;7.47;6.43;;;;;;;;;;750921;186;623289;-64
2022/08/17 13:42:31;;;;;;;7.70;6.00;;;;;;;;;;749996;186;617501;-64
2022/08/17 13:44:57;;;;;;;7.97;6.43;;;;;;;;;;747678;184;630879;-65
2022/08/17 13:47:23;;;;;;;9.47;6.57;;;;;;;;;;742623;186;628039;-65
2022/08/17 13:49:49;;;;;;;6.07;5.13;;;;;;;;;;746118;186;626836;-59
2022/08/17 13:52:21;;;;;;;11.30;6.20;;;;;;;;;;738750;188;621098;-59
2022/08/17 13:54:46;;;;;;;8.30;6.47;;;;;;;;;;748555;186;631969;-66
2022/08/17 13:57:15;;;;;;;9.40;6.70;;;;;;;;;;747765;186;618389;-64
2022/08/17 13:59:41;;;;;;;13.03;6.33;;;;;;;;;;756052;183;621883;-58
2022/08/17 14:02:07;;;;;;;8.23;6.20;;;;;;;;;;752336;186;623833;-59
2022/08/17 14:04:33;;;;;;;8.20;6.40;;;;;;;;;;753755;186;619500;-64
2022/08/17 14:07:00;;;;;;;7.27;5.80;;;;;;;;;;749138;186;630105;-66
2022/08/17 14:09:28;;;;;;;7.80;7.00;;;;;;;;;;757373;187;617975;-64
2022/08/17 14:11:54;;;;;;;7.40;5.30;;;;;;;;;;749899;187;630424;-63
2022/08/17 14:14:21;;;;;;;8.50;6.33;;;;;;;;;;752191;186;625465;-60
2022/08/17 14:16:46;;;;;;;7.40;5.93;;;;;;;;;;755428;186;626773;-65
2022/08/17 14:19:12;;;;;;;6.67;5.97;;;;;;;;;;749937;186;619029;-65
2022/08/17 14:21:37;;;;;;;9.10;6.00;;;;;;;;;;750540;186;634261;-59
2022/08/17 14:24:03;;;;;;;7.40;6.20;;;;;;;;;;747586;187;623051;-64
2022/08/17 14:26:29;;;;;;;6.50;5.70;;;;;;;;;;747372;186;628412;-59
2022/08/17 14:28:55;;;;;;;9.43;7.50;;;;;;;;;;753489;186;631274;-58
2022/08/17 14:31:21;;;;;;;10.33;6.50;;;;;;;;;;746036;186;625222;-59
2022/08/17 14:33:47;;;;;;;10.70;6.23;;;;;;;;;;754936;186;628112;-64
2022/08/17 14:36:13;;;;;;;7.60;6.17;;;;;;;;;;750340;186;629148;-62
2022/08/17 14:38:38;;;;;;;8.33;6.30;;;;;;;;;;742023;186;645589;-59
2022/08/17 14:41:04;;;;;;;10.50;7.23;;;;;;;;;;756072;183;632646;-64
2022/08/17 14:43:33;;;;;;;10.10;6.13;;;;;;;;;;756041;186;626626;-64